Latest Coastal Weather Observations for Rundle Island

IDQ60701

Issued at 6:42 am EST Tuesday 27 September 2016 (issued every 10 minutes, with the page automatically refreshed every 10 minutes)

About coastal observations | Map of coastal stations | Coastal observations for QLD | Marine services | Other Formats
Station Details ID: 039322 Name: RUNDLE ISLAND Lat: -23.53 Lon: 151.28 Height: 19.8 m
Data from the previous 72 hours. | See also: Recent months at Rundle Island
Date/Time
EST
Temp
°C
Wind Pressure Rain since
9am
mm
Weather Cloud Vis
km
Sea
Height
m
Swell
Dir  Spd
kts
Gust
kts
hPa Trend Height
m
Period
s
Dir
27/06:30am 20.2 SSW 5 7 1014.3 - - - - - - - - -
27/06:00am 19.8 SSW 4 5 1013.9 - - - - - - - - -
27/05:30am 19.9 SW 6 8 1013.9 - - - - - - - - -
27/05:00am 20.4 SW 5 5 1013.5 - - - - - - - - -
27/04:30am 20.5 WSW 4 5 1013.0 - - - - - - - - -
27/04:00am 20.7 SW 4 5 1012.7 - - - - - - - - -
27/03:30am 20.6 SW 3 5 1012.4 - - - - - - - - -
27/03:00am 20.4 SW 4 4 1012.4 - - - - - - - - -
27/02:30am 20.4 SW 4 4 1012.3 - - - - - - - - -
27/02:00am 20.6 CALM 0 3 1012.6 - - - - - - - - -
27/01:30am 20.5 SW 1 2 1012.7 - - - - - - - - -
27/01:00am 20.5 WSW 4 5 1013.0 - - - - - - - - -
27/12:30am 21.3 WNW 4 6 1013.3 - - - - - - - - -
27/12:00am 22.0 NNW 5 6 1013.3 - - - - - - - - -
 
Date/Time
EST
Temp
°C
Wind Pressure Rain since
9am
mm
Weather Cloud Vis
km
Sea
Height
m
Swell
Dir  Spd
kts
Gust
kts
hPa Trend Height
m
Period
s
Dir
26/11:30pm 22.2 NNW 6 7 1013.1 - - - - - - - - -
26/11:00pm 22.1 N 5 6 1013.1 - - - - - - - - -
26/10:30pm 22.3 NNE 6 7 1013.0 - - - - - - - - -
26/10:00pm 22.2 N 5 6 1013.4 - - - - - - - - -
26/09:30pm 22.2 NNW 7 8 1013.4 - - - - - - - - -
26/09:00pm 22.2 NNW 7 8 1013.1 - - - - - - - - -
26/08:30pm 22.1 NNW 8 9 1013.0 - - - - - - - - -
26/08:00pm 22.2 N 8 9 1012.8 - - - - - - - - -
26/07:30pm 22.3 N 8 9 1012.7 - - - - - - - - -
26/07:00pm 22.2 N 9 10 1012.4 - - - - - - - - -
26/06:30pm 22.2 N 10 11 1012.0 - - - - - - - - -
26/06:00pm 22.3 NNE 9 11 1011.6 - - - - - - - - -
26/05:30pm 22.5 NNE 11 13 1011.1 - - - - - - - - -
26/05:00pm 22.4 NE 11 13 1010.7 - - - - - - - - -
26/04:30pm 22.5 NE 11 13 1010.5 - - - - - - - - -
26/04:00pm 22.6 NE 12 15 1010.4 - - - - - - - - -
26/03:30pm 22.8 NE 12 15 1010.4 - - - - - - - - -
26/03:00pm 23.0 NE 12 13 1010.4 - - - - - - - - -
26/02:30pm 23.0 ENE 11 13 1010.6 - - - - - - - - -
26/02:00pm 23.3 ENE 10 11 1011.0 - - - - - - - - -
26/01:30pm 23.3 NE 9 11 1011.4 - - - - - - - - -
26/01:00pm 23.1 E 10 11 1011.7 - - - - - - - - -
26/12:30pm 23.0 E 10 12 1012.1 - - - - - - - - -
26/12:00pm 23.1 E 10 11 1012.5 - - - - - - - - -
26/11:30am 22.9 ESE 9 11 1013.2 - - - - - - - - -
26/11:00am 23.2 ESE 10 12 1013.7 - - - - - - - - -
26/10:30am 22.4 SE 12 14 1014.1 - - - - - - - - -
26/10:00am 22.5 SE 12 13 1014.4 - - - - - - - - -
26/09:30am 22.6 SSE 12 13 1014.6 - - - - - - - - -
26/09:00am 22.7 SSE 13 14 1014.7 - - - - - - - - -
26/08:30am 22.3 SSE 14 16 1014.4 - - - - - - - - -
26/08:00am 22.4 SSE 16 18 1014.1 - - - - - - - - -
26/07:30am 22.4 SSE 14 16 1013.7 - - - - - - - - -
26/07:00am 22.3 SSE 13 17 1013.2 - - - - - - - - -
26/06:30am 21.5 S 8 10 1012.9 - - - - - - - - -
26/06:00am 21.6 SSW 10 11 1012.6 - - - - - - - - -
26/05:30am 21.9 SSW 12 14 1012.1 - - - - - - - - -
26/05:00am 21.7 S 10 12 1011.7 - - - - - - - - -
26/04:30am 21.8 SSW 11 12 1011.3 - - - - - - - - -
26/04:00am 22.0 SSW 10 12 1011.0 - - - - - - - - -
26/03:30am 22.3 SSW 11 13 1010.6 - - - - - - - - -
26/03:00am 22.6 SSE 10 11 1010.3 - - - - - - - - -
26/02:30am 22.7 S 10 12 1010.2 - - - - - - - - -
26/02:00am 22.4 S 10 11 1010.2 - - - - - - - - -
26/01:30am 22.7 S 10 11 1010.2 - - - - - - - - -
26/01:00am 22.7 SSW 7 8 1010.3 - - - - - - - - -
26/12:30am 23.3 SSW 9 11 1010.4 - - - - - - - - -
26/12:00am 23.4 WSW 5 7 1010.6 - - - - - - - - -
 
Date/Time
EST
Temp
°C
Wind Pressure Rain since
9am
mm
Weather Cloud Vis
km
Sea
Height
m
Swell
Dir  Spd
kts
Gust
kts
hPa Trend Height
m
Period
s
Dir
25/11:30pm 23.4 WNW 10 12 1010.6 - - - - - - - - -
25/11:00pm 23.7 WNW 12 13 1010.3 - - - - - - - - -
25/10:30pm 23.5 NW 13 14 1010.0 - - - - - - - - -
25/10:00pm 23.5 NW 13 15 1010.0 - - - - - - - - -
25/09:30pm 23.7 NW 13 15 1009.9 - - - - - - - - -
25/09:00pm 23.6 NNW 14 16 1009.7 - - - - - - - - -
25/08:30pm 23.6 NNW 14 17 1009.5 - - - - - - - - -
25/08:00pm 23.6 NNW 17 20 1008.9 - - - - - - - - -
25/07:30pm 23.3 NNW 18 21 1008.5 - - - - - - - - -
25/07:00pm 23.4 NNW 16 20 1008.0 - - - - - - - - -
25/06:30pm 23.5 NNW 19 22 1007.4 - - - - - - - - -
25/06:00pm 23.4 NNW 20 24 1006.9 - - - - - - - - -
25/05:30pm 23.5 N 21 24 1006.4 - - - - - - - - -
25/05:00pm 23.6 N 22 25 1006.0 - - - - - - - - -
25/04:30pm 23.6 N 22 25 1005.7 - - - - - - - - -
25/04:00pm 23.6 N 20 23 1005.7 - - - - - - - - -
25/03:30pm 23.7 N 19 22 1006.0 - - - - - - - - -
25/03:00pm 23.7 N 17 20 1006.1 - - - - - - - - -
25/02:30pm 23.7 N 16 18 1006.3 - - - - - - - - -
25/02:00pm 23.6 N 13 15 1006.9 - - - - - - - - -
25/01:30pm 23.8 NNW 13 14 1007.4 - - - - - - - - -
25/01:00pm 23.6 N 13 16 1007.5 - - - - - - - - -
25/12:30pm 23.5 N 14 17 1007.7 - - - - - - - - -
25/12:00pm 23.7 NNW 13 15 1008.6 - - - - - - - - -
25/11:30am 23.6 NNW 11 13 1009.0 - - - - - - - - -
25/11:00am 23.3 NNW 10 11 1009.5 - - - - - - - - -
25/10:30am 23.5 NNW 11 13 1010.1 - - - - - - - - -
25/10:00am 23.3 NNW 11 13 1010.2 - - - - - - - - -
25/09:30am 23.2 NNW 12 14 1010.1 - - - - - - - - -
25/09:00am 23.2 NNW 13 15 1010.3 - - - - - - - - -
25/08:30am 23.1 NNW 14 16 1010.4 - - - - - - - - -
25/08:00am 23.1 NNW 15 16 1010.2 - - - - - - - - -
25/07:30am 23.0 NNW 15 17 1010.2 - - - - - - - - -
25/07:00am 23.0 NNW 15 17 1009.9 - - - - - - - - -
25/06:30am 23.1 NNW 14 16 1009.8 - - - - - - - - -
25/06:00am 23.1 NNW 17 19 1009.1 - - - - - - - - -
25/05:30am 23.0 NNW 16 18 1008.8 - - - - - - - - -
25/05:00am 23.0 NNW 14 17 1008.7 - - - - - - - - -
25/04:30am 23.0 NNW 16 18 1008.4 - - - - - - - - -
25/04:00am 22.9 NNW 14 16 1008.3 - - - - - - - - -
25/03:30am 22.9 NNW 14 17 1008.1 - - - - - - - - -
25/03:00am 22.9 NNW 12 15 1008.3 - - - - - - - - -
25/02:30am 22.8 NNW 10 11 1008.7 - - - - - - - - -
25/02:00am 22.8 NNW 8 9 1008.9 - - - - - - - - -
25/01:30am 22.8 NNW 7 8 1009.3 - - - - - - - - -
25/01:00am 22.8 NNW 8 9 1009.5 - - - - - - - - -
25/12:30am 22.8 NNW 10 12 1009.7 - - - - - - - - -
25/12:00am 22.9 NNW 10 12 1009.9 - - - - - - - - -
 
Date/Time
EST
Temp
°C
Wind Pressure Rain since
9am
mm
Weather Cloud Vis
km
Sea
Height
m
Swell
Dir  Spd
kts
Gust
kts
hPa Trend Height
m
Period
s
Dir
24/11:30pm 22.8 NNW 12 13 1009.9 - - - - - - - - -
24/11:00pm 22.8 NNW 11 12 1010.0 - - - - - - - - -
24/10:30pm 22.8 NNW 10 12 1010.4 - - - - - - - - -
24/10:00pm 22.9 NNW 9 11 1010.5 - - - - - - - - -
24/09:30pm 22.9 N 10 12 1010.5 - - - - - - - - -
24/09:00pm 22.9 N 11 12 1010.4 - - - - - - - - -
24/08:30pm 22.9 N 11 13 1010.2 - - - - - - - - -
24/08:00pm 22.9 N 13 14 1009.7 - - - - - - - - -
24/07:30pm 22.9 N 14 16 1009.4 - - - - - - - - -
24/07:00pm 22.9 N 12 14 1009.2 - - - - - - - - -
24/06:30pm 22.9 NNE 11 12 1009.0 - - - - - - - - -
24/06:00pm 22.9 NNE 12 13 1008.7 - - - - - - - - -
24/05:30pm 22.7 NE 12 14 1008.6 - - - - - - - - -
24/05:00pm 22.6 NE 12 14 1008.4 - - - - - - - - -
24/04:30pm 22.7 NE 12 14 1008.4 - - - - - - - - -
24/04:00pm 22.6 NE 14 15 1008.4 - - - - - - - - -
24/03:30pm 22.6 NE 13 15 1008.4 - - - - - - - - -
24/03:00pm 22.7 ENE 12 13 1008.6 - - - - - - - - -
24/02:30pm 23.0 ENE 12 13 1008.9 - - - - - - - - -
24/02:00pm 22.9 ENE 11 13 1009.6 - - - - - - - - -
24/01:30pm 23.2 ENE 10 11 1010.3 - - - - - - - - -
24/01:00pm 22.9 ENE 11 11 1010.6 - - - - - - - - -
24/12:30pm 23.1 ENE 9 10 1011.1 - - - - - - - - -
24/12:00pm 23.2 E 9 10 1011.5 - - - - - - - - -
24/11:30am 23.1 E 9 9 1011.9 - - - - - - - - -
24/11:00am 23.2 ESE 7 8 1012.6 - - - - - - - - -
24/10:30am 22.8 SE 7 8 1013.0 - - - - - - - - -
24/10:00am 21.6 SE 8 8 1013.3 - - - - - - - - -
24/09:30am 22.0 SSE 7 8 1013.6 - - - - - - - - -
24/09:00am 21.5 SSE 7 8 1013.6 - - - - - - - - -
24/08:30am 21.6 SSE 8 8 1013.7 - - - - - - - - -
24/08:00am 21.4 S 7 8 1013.6 - - - - - - - - -
24/07:30am 20.3 SSW 6 7 1013.5 - - - - - - - - -
24/07:00am 20.3 SSW 4 5 1013.2 - - - - - - - - -

Other Formats:

Comma delimited format used in spreadsheet applications
http://www.bom.gov.au/fwo/IDQ60701/IDQ60701.94378.axf

JavaScript Object Notation format (JSON) in row-major order
http://www.bom.gov.au/fwo/IDQ60701/IDQ60701.94378.json